createdAt,value
2019-06-07T00:01:50.192Z,7.22
2019-06-07T00:04:21.066Z,6.90
2019-06-07T00:06:47.237Z,7.70
2019-06-07T00:09:18.637Z,8.00
2019-06-07T00:11:45.310Z,7.78
2019-06-07T00:14:14.700Z,7.20
2019-06-07T00:16:42.031Z,7.35
2019-06-07T00:19:09.647Z,7.55
2019-06-07T00:24:08.561Z,7.53
2019-06-07T00:26:56.317Z,7.12
2019-06-07T00:29:06.365Z,7.03
2019-06-07T00:31:33.785Z,8.20
2019-06-07T00:34:03.783Z,7.12
2019-06-07T00:36:31.174Z,7.47
2019-06-07T00:38:59.353Z,7.08
2019-06-07T00:41:28.435Z,8.18
2019-06-07T00:43:57.045Z,8.58
2019-06-07T00:46:25.402Z,7.62
2019-06-07T00:48:53.098Z,7.80
2019-06-07T00:51:21.914Z,8.48
2019-06-07T00:53:50.361Z,7.20
2019-06-07T00:56:20.308Z,8.08
2019-06-07T00:59:09.680Z,7.35
2019-06-07T01:01:19.082Z,7.50
2019-06-07T01:03:46.109Z,7.53
2019-06-07T01:06:14.923Z,7.92
2019-06-07T01:08:44.287Z,7.42
2019-06-07T01:11:13.478Z,8.35
2019-06-07T01:13:41.106Z,7.60
2019-06-07T01:16:08.499Z,7.75
2019-06-07T01:18:40.975Z,7.87
2019-06-07T01:21:05.544Z,8.80
2019-06-07T01:24:04.758Z,7.58
2019-06-07T01:26:06.852Z,8.68
2019-06-07T01:28:34.365Z,8.35
2019-06-07T01:31:02.069Z,8.60
2019-06-07T01:33:49.950Z,8.50
2019-06-07T01:35:58.742Z,8.63
2019-06-07T01:38:26.899Z,8.85
2019-06-07T01:40:54.357Z,8.90
2019-06-07T01:43:26.109Z,9.53
2019-06-07T01:45:51.180Z,9.58
2019-06-07T01:48:22.796Z,9.38
2019-06-07T01:50:50.012Z,11.12
2019-06-07T01:53:22.407Z,9.90
2019-06-07T01:55:48.266Z,10.32
2019-06-07T01:58:16.993Z,10.72
2019-06-07T02:00:45.349Z,10.65
2019-06-07T02:03:12.866Z,9.85
2019-06-07T02:05:40.358Z,11.03
2019-06-07T02:08:07.874Z,10.13
2019-06-07T02:10:35.372Z,10.53
2019-06-07T02:13:03.810Z,10.75
2019-06-07T02:15:36.476Z,10.88
2019-06-07T02:18:00.556Z,10.88
2019-06-07T02:20:33.481Z,11.78
2019-06-07T02:22:58.324Z,10.60
2019-06-07T02:25:38.322Z,10.85
2019-06-07T02:28:25.859Z,10.65
2019-06-07T02:30:40.600Z,11.50
2019-06-07T02:32:55.040Z,11.38
2019-06-07T02:35:26.079Z,11.43
2019-06-07T02:37:51.641Z,11.78
2019-06-07T02:40:19.184Z,10.93
2019-06-07T02:42:48.871Z,12.45
2019-06-07T02:45:16.352Z,10.78
2019-06-07T02:47:45.461Z,11.95
2019-06-07T02:50:12.973Z,11.50
2019-06-07T02:52:42.484Z,11.22
2019-06-07T02:55:10.273Z,11.83
2019-06-07T02:57:41.617Z,11.38
2019-06-07T03:00:40.773Z,11.45
2019-06-07T03:02:41.192Z,11.40
2019-06-07T03:05:06.485Z,11.57
2019-06-07T03:07:39.023Z,11.08
2019-06-07T03:10:04.284Z,11.85
2019-06-07T03:12:33.532Z,11.30
2019-06-07T03:15:00.868Z,11.90
2019-06-07T03:17:45.136Z,11.73
2019-06-07T03:20:16.871Z,11.55
2019-06-07T03:22:45.487Z,11.63
2019-06-07T03:25:12.980Z,12.33
2019-06-07T03:27:49.155Z,12.45
2019-06-07T03:30:36.028Z,13.88
2019-06-07T03:32:47.239Z,13.58
2019-06-07T03:35:10.066Z,13.10
2019-06-07T03:37:40.734Z,12.93
2019-06-07T03:40:06.719Z,12.23
2019-06-07T03:42:37.685Z,13.78
2019-06-07T03:45:05.656Z,12.43
2019-06-07T03:47:36.526Z,11.97
2019-06-07T03:50:02.279Z,13.00
2019-06-07T03:52:31.596Z,13.22
2019-06-07T03:55:00.325Z,13.88
2019-06-07T03:57:29.076Z,13.93
2019-06-07T03:59:56.961Z,13.90
2019-06-07T04:02:24.468Z,14.47
2019-06-07T04:04:51.989Z,13.93
2019-06-07T04:07:19.469Z,14.38
2019-06-07T04:09:46.987Z,16.40
2019-06-07T04:12:22.207Z,16.65
2019-06-07T04:14:51.131Z,15.28
2019-06-07T04:17:18.678Z,17.00
2019-06-07T04:19:46.817Z,16.93
2019-06-07T04:22:14.229Z,15.72
2019-06-07T04:24:43.368Z,18.23
2019-06-07T04:27:10.804Z,17.25
2019-06-07T04:30:02.987Z,18.65
2019-06-07T04:32:07.703Z,18.87
2019-06-07T04:34:38.364Z,18.30
2019-06-07T04:37:04.230Z,17.48
2019-06-07T04:39:34.004Z,17.27
2019-06-07T04:42:00.958Z,18.60
2019-06-07T04:44:28.892Z,18.67
2019-06-07T04:46:57.564Z,18.10
2019-06-07T04:49:25.168Z,18.00
2019-06-07T04:51:52.798Z,18.42
2019-06-07T04:54:20.147Z,18.82
2019-06-07T04:56:49.247Z,19.12
2019-06-07T05:00:01.116Z,19.95
2019-06-07T05:01:48.351Z,19.55
2019-06-07T05:04:15.851Z,19.05
2019-06-07T05:06:44.002Z,19.37
2019-06-07T05:09:11.426Z,20.40
2019-06-07T05:11:44.297Z,19.52
2019-06-07T05:14:07.974Z,18.60
2019-06-07T05:16:38.838Z,21.20
2019-06-07T05:19:04.457Z,20.80
2019-06-07T05:21:58.391Z,20.72
2019-06-07T05:24:09.475Z,21.30
2019-06-07T05:26:35.882Z,25.02
2019-06-07T05:29:02.125Z,26.10
2019-06-07T05:31:31.845Z,24.43
2019-06-07T05:34:00.308Z,24.50
2019-06-07T05:36:27.771Z,25.57
2019-06-07T05:38:55.767Z,23.95
2019-06-07T05:41:23.802Z,24.80
2019-06-07T05:44:12.033Z,25.37
2019-06-07T05:46:33.924Z,28.80
2019-06-07T05:49:01.234Z,29.70
2019-06-07T05:51:28.607Z,28.73
2019-06-07T05:53:55.988Z,26.15
2019-06-07T05:56:23.337Z,26.02
2019-06-07T05:58:50.725Z,26.90
2019-06-07T06:03:48.490Z,26.20
2019-06-07T06:06:16.525Z,27.52
2019-06-07T06:08:45.335Z,27.30
2019-06-07T06:11:13.022Z,26.37
2019-06-07T06:14:01.515Z,26.12
2019-06-07T06:16:11.198Z,27.95
2019-06-07T06:18:40.544Z,27.35
2019-06-07T06:21:18.755Z,25.62
2019-06-07T06:23:39.610Z,25.55
2019-06-07T06:26:05.996Z,25.35
2019-06-07T06:28:33.492Z,27.07
2019-06-07T06:31:01.127Z,27.07
2019-06-07T06:33:34.516Z,26.77
2019-06-07T06:35:59.248Z,26.33
2019-06-07T06:38:26.669Z,27.35
2019-06-07T06:41:13.836Z,23.83
2019-06-07T06:43:23.183Z,26.57
2019-06-07T06:45:50.829Z,26.57
2019-06-07T06:48:18.588Z,25.25
2019-06-07T06:50:51.781Z,24.23
2019-06-07T06:53:16.660Z,28.17
2019-06-07T06:55:44.623Z,26.85
2019-06-07T06:58:14.244Z,25.17
2019-06-07T07:00:55.444Z,25.25
2019-06-07T07:05:48.456Z,33.35
2019-06-07T07:08:13.695Z,27.90
2019-06-07T07:10:43.237Z,25.65
2019-06-07T07:13:10.666Z,26.23
2019-06-07T07:15:39.667Z,25.80
2019-06-07T07:18:08.831Z,28.40
2019-06-07T07:20:36.017Z,26.97
2019-06-07T07:23:03.356Z,26.02
2019-06-07T07:25:30.766Z,24.57
2019-06-07T07:27:58.184Z,24.45
2019-06-07T07:30:39.523Z,24.85
2019-06-07T07:33:07.211Z,24.10
2019-06-07T07:35:34.724Z,23.10
2019-06-07T07:38:02.184Z,23.45
2019-06-07T07:40:57.199Z,22.20
2019-06-07T07:42:58.676Z,23.87
2019-06-07T07:45:26.049Z,22.70
2019-06-07T07:48:08.331Z,20.68
2019-06-07T07:50:22.836Z,21.15
2019-06-07T07:52:55.974Z,18.30
2019-06-07T07:55:21.239Z,18.02
2019-06-07T07:57:56.007Z,18.90
2019-06-07T08:00:49.466Z,20.15
2019-06-07T08:02:48.807Z,20.52
2019-06-07T08:05:25.686Z,21.30
2019-06-07T08:07:47.551Z,20.57
2019-06-07T08:10:14.434Z,20.97
2019-06-07T08:13:00.446Z,22.48
2019-06-07T08:15:11.099Z,20.17
2019-06-07T08:17:38.508Z,21.05
2019-06-07T08:20:08.817Z,21.80
2019-06-07T08:22:36.235Z,22.17
2019-06-07T08:25:07.663Z,21.42
2019-06-07T08:27:37.345Z,22.05
2019-06-07T08:30:46.515Z,22.13
2019-06-07T08:32:38.095Z,21.85
2019-06-07T08:35:06.924Z,21.82
2019-06-07T08:38:14.255Z,21.93
2019-06-07T08:40:08.398Z,23.22
2019-06-07T08:42:59.434Z,23.30
2019-06-07T08:45:07.789Z,20.75
2019-06-07T08:47:35.242Z,21.55
2019-06-07T08:50:07.462Z,21.33
2019-06-07T08:52:31.692Z,20.82
2019-06-07T08:55:03.324Z,23.10
2019-06-07T08:57:28.384Z,22.80
2019-06-07T08:59:58.561Z,21.93
2019-06-07T09:02:25.929Z,22.65
2019-06-07T09:04:57.015Z,22.85
2019-06-07T09:07:22.769Z,23.38
2019-06-07T09:09:50.229Z,22.87
2019-06-07T09:12:17.640Z,22.48
2019-06-07T09:14:59.973Z,21.68
2019-06-07T09:17:14.057Z,23.05
2019-06-07T09:19:41.496Z,20.25
2019-06-07T09:22:11.280Z,20.12
2019-06-07T09:24:38.088Z,20.05
2019-06-07T09:27:07.795Z,21.05
2019-06-07T09:29:35.280Z,19.55
2019-06-07T09:32:07.645Z,18.65
2019-06-07T09:34:31.795Z,19.90
2019-06-07T09:37:04.283Z,17.62
2019-06-07T09:39:28.375Z,17.60
2019-06-07T09:41:56.511Z,17.00
2019-06-07T09:44:26.599Z,16.55
2019-06-07T09:47:12.924Z,17.05
2019-06-07T09:49:32.044Z,16.87
2019-06-07T09:51:53.689Z,16.90
2019-06-07T09:55:03.123Z,15.72
2019-06-07T09:56:50.271Z,15.95
2019-06-07T09:59:17.752Z,15.20
2019-06-07T10:01:45.294Z,14.07
2019-06-07T10:04:30.123Z,14.80
2019-06-07T10:06:41.745Z,16.23
2019-06-07T10:11:39.245Z,15.05
2019-06-07T10:14:06.937Z,16.70
2019-06-07T10:16:46.166Z,13.88
2019-06-07T10:19:03.713Z,12.40
2019-06-07T10:21:32.150Z,13.03
2019-06-07T10:23:59.559Z,11.88
2019-06-07T10:26:27.053Z,11.95
2019-06-07T10:28:54.432Z,11.12
2019-06-07T10:31:21.855Z,11.12
2019-06-07T10:33:49.793Z,9.30
2019-06-07T10:36:17.401Z,9.25
2019-06-07T10:38:44.935Z,9.88
2019-06-07T10:41:13.916Z,9.43
2019-06-07T10:43:41.333Z,7.50
2019-06-07T10:46:15.896Z,6.87
2019-06-07T10:48:43.342Z,6.62
2019-06-07T10:51:12.371Z,6.95
2019-06-07T10:53:39.848Z,6.92
2019-06-07T10:56:07.187Z,6.25
2019-06-07T10:58:34.915Z,6.65
2019-06-07T11:01:05.175Z,5.92
2019-06-07T11:03:33.030Z,5.15
2019-06-07T11:06:00.453Z,5.33
2019-06-07T11:08:27.853Z,5.30
2019-06-07T11:10:55.875Z,5.50
2019-06-07T11:13:26.035Z,5.00
2019-06-07T11:15:53.459Z,4.85
2019-06-07T11:18:20.825Z,4.50
2019-06-07T11:20:48.317Z,4.03
2019-06-07T11:23:15.634Z,4.03
2019-06-07T11:25:43.067Z,3.77
2019-06-07T11:28:10.678Z,3.65
2019-06-07T11:30:37.980Z,4.17
2019-06-07T11:33:06.431Z,4.17
2019-06-07T11:35:33.928Z,3.62
2019-06-07T11:38:01.330Z,4.10
2019-06-07T11:40:35.684Z,4.00
2019-06-07T11:42:57.834Z,4.15
2019-06-07T11:45:25.384Z,3.77
2019-06-07T11:47:52.760Z,3.77
2019-06-07T11:50:20.085Z,3.83
2019-06-07T11:52:47.418Z,4.45
2019-06-07T11:55:15.842Z,4.65
2019-06-07T11:57:43.333Z,4.00
2019-06-07T12:00:13.925Z,4.85
2019-06-07T12:02:41.630Z,4.70
2019-06-07T12:05:11.283Z,5.22
2019-06-07T12:07:38.364Z,4.87
2019-06-07T12:10:08.449Z,4.45
2019-06-07T12:12:36.060Z,3.33
2019-06-07T12:15:08.819Z,4.67
2019-06-07T12:17:36.518Z,4.40
2019-06-07T12:20:08.448Z,5.30
2019-06-07T12:22:33.776Z,6.12
2019-06-07T12:25:01.176Z,6.42
2019-06-07T12:27:28.484Z,5.83
2019-06-07T12:29:55.811Z,5.25
2019-06-07T12:32:23.194Z,6.30
2019-06-07T12:34:50.559Z,6.35
2019-06-07T12:37:21.081Z,4.83
2019-06-07T12:39:47.144Z,6.10
2019-06-07T12:42:14.904Z,6.12
2019-06-07T12:44:42.367Z,6.17
2019-06-07T12:47:09.748Z,7.30
2019-06-07T12:49:37.615Z,7.30
2019-06-07T12:52:05.035Z,6.97
2019-06-07T12:54:32.348Z,6.55
2019-06-07T12:56:59.747Z,7.00
2019-06-07T12:59:27.085Z,6.85
2019-06-07T13:01:54.394Z,7.35
2019-06-07T13:04:22.583Z,7.47
2019-06-07T13:06:50.092Z,7.28
2019-06-07T13:09:17.771Z,7.05
2019-06-07T13:11:45.264Z,7.83
2019-06-07T13:14:12.651Z,8.03
2019-06-07T13:16:40.048Z,8.78
2019-06-07T13:19:07.380Z,9.23
2019-06-07T13:21:34.735Z,9.58
2019-06-07T13:24:02.044Z,9.78
2019-06-07T13:26:29.960Z,9.68
2019-06-07T13:28:57.326Z,8.98
2019-06-07T13:31:25.230Z,10.03
2019-06-07T13:33:52.666Z,9.10
2019-06-07T13:36:20.220Z,9.93
2019-06-07T13:38:47.532Z,10.23
2019-06-07T13:41:30.176Z,9.48
2019-06-07T13:43:43.954Z,9.45
2019-06-07T13:46:13.065Z,9.63
2019-06-07T13:48:43.327Z,10.10
2019-06-07T13:51:10.739Z,9.00
2019-06-07T13:53:38.058Z,9.88
2019-06-07T13:56:05.511Z,9.10
2019-06-07T13:58:32.857Z,8.70
2019-06-07T14:01:00.334Z,10.35
2019-06-07T14:03:32.879Z,8.38
2019-06-07T14:05:58.432Z,8.80
2019-06-07T14:08:27.172Z,9.18
2019-06-07T14:10:54.722Z,8.35
2019-06-07T14:13:22.108Z,8.30
2019-06-07T14:15:49.456Z,8.55
2019-06-07T14:18:16.870Z,10.00
2019-06-07T14:20:44.202Z,8.40
2019-06-07T14:23:11.569Z,8.35
2019-06-07T14:25:41.103Z,7.10
2019-06-07T14:28:11.398Z,9.23
2019-06-07T14:30:37.007Z,8.05
2019-06-07T14:33:04.493Z,7.45
2019-06-07T14:35:33.569Z,7.03
2019-06-07T14:38:01.266Z,7.45
2019-06-07T14:40:30.058Z,8.30
2019-06-07T14:42:57.528Z,8.83
2019-06-07T14:45:25.533Z,8.48
2019-06-07T14:47:52.922Z,7.90
2019-06-07T14:50:20.301Z,6.65
2019-06-07T14:52:47.728Z,7.12
2019-06-07T14:55:15.655Z,6.83
2019-06-07T14:57:43.251Z,7.80
2019-06-07T15:00:12.073Z,6.60
2019-06-07T15:02:39.986Z,5.87
2019-06-07T15:05:07.585Z,5.17
2019-06-07T15:07:35.029Z,5.17
2019-06-07T15:10:04.125Z,5.37
2019-06-07T15:12:31.487Z,5.53
2019-06-07T15:15:00.642Z,6.65
2019-06-07T15:17:31.255Z,6.45
2019-06-07T15:19:58.780Z,6.85
2019-06-07T15:22:26.203Z,6.15
2019-06-07T15:24:53.604Z,7.33
2019-06-07T15:27:20.930Z,7.12
2019-06-07T15:29:48.331Z,7.50
2019-06-07T15:32:15.779Z,7.92
2019-06-07T15:34:44.061Z,7.78
2019-06-07T15:37:11.464Z,7.25
2019-06-07T15:39:38.868Z,7.22
2019-06-07T15:42:06.195Z,7.10
2019-06-07T15:44:33.501Z,6.80
2019-06-07T15:47:00.895Z,6.40
2019-06-07T15:49:28.276Z,7.35
2019-06-07T15:51:55.608Z,7.12
2019-06-07T15:54:22.937Z,6.28
2019-06-07T15:56:50.251Z,6.50
2019-06-07T15:59:17.608Z,6.20
2019-06-07T16:01:44.925Z,5.20
2019-06-07T16:04:12.344Z,6.05
2019-06-07T16:06:40.559Z,5.95
2019-06-07T16:09:08.078Z,6.40
2019-06-07T16:11:37.070Z,5.62
2019-06-07T16:14:06.351Z,5.72
2019-06-07T16:16:35.057Z,5.40
2019-06-07T16:19:02.511Z,5.17
2019-06-07T16:21:29.966Z,5.40
2019-06-07T16:24:00.364Z,5.05
2019-06-07T16:26:27.829Z,5.42
2019-06-07T16:28:57.345Z,4.37
2019-06-07T16:31:24.122Z,4.58
2019-06-07T16:33:51.458Z,4.65
2019-06-07T16:36:18.814Z,5.22
2019-06-07T16:38:46.269Z,4.70
2019-06-07T16:41:13.677Z,5.55
2019-06-07T16:43:41.046Z,4.60
2019-06-07T16:46:08.386Z,4.80
2019-06-07T16:48:36.779Z,5.20
2019-06-07T16:51:04.277Z,4.92
2019-06-07T16:53:31.740Z,5.30
2019-06-07T16:55:59.126Z,5.08
2019-06-07T16:58:26.561Z,4.95
2019-06-07T17:00:57.274Z,4.58
2019-06-07T17:03:24.686Z,5.92
2019-06-07T17:05:52.346Z,4.97
2019-06-07T17:08:20.176Z,5.15
2019-06-07T17:10:48.992Z,5.30
2019-06-07T17:13:32.111Z,4.75
2019-06-07T17:15:47.073Z,4.72
2019-06-07T17:18:14.447Z,5.62
2019-06-07T17:20:42.986Z,4.75
2019-06-07T17:23:10.576Z,5.17
2019-06-07T17:25:39.301Z,5.30
2019-06-07T17:28:06.961Z,5.45
2019-06-07T17:30:34.280Z,5.00
2019-06-07T17:33:03.380Z,5.28
2019-06-07T17:35:30.667Z,5.20
2019-06-07T17:37:57.994Z,5.00
2019-06-07T17:40:25.337Z,5.25
2019-06-07T17:42:52.681Z,5.30
2019-06-07T17:45:20.009Z,4.72
2019-06-07T17:47:47.764Z,5.35
2019-06-07T17:50:15.142Z,5.12
2019-06-07T17:52:43.712Z,5.60
2019-06-07T17:55:11.367Z,5.55
2019-06-07T17:57:38.700Z,4.87
2019-06-07T18:02:39.792Z,5.60
2019-06-07T18:05:07.256Z,5.53
2019-06-07T18:07:34.735Z,5.30
2019-06-07T18:10:02.720Z,5.47
2019-06-07T18:12:30.053Z,6.28
2019-06-07T18:14:57.411Z,5.83
2019-06-07T18:17:34.057Z,4.95
2019-06-07T18:19:55.179Z,5.08
2019-06-07T18:22:22.943Z,5.90
2019-06-07T18:24:50.630Z,4.95
2019-06-07T18:27:17.983Z,6.40
2019-06-07T18:29:46.459Z,5.80
2019-06-07T18:32:16.176Z,6.65
2019-06-07T18:34:43.482Z,5.70
2019-06-07T18:37:13.365Z,6.10
2019-06-07T18:39:40.759Z,5.85
2019-06-07T18:42:08.182Z,6.08
2019-06-07T18:44:35.551Z,6.55
2019-06-07T18:47:02.955Z,7.42
2019-06-07T18:49:30.385Z,8.55
2019-06-07T18:52:17.469Z,8.78
2019-06-07T18:54:50.915Z,9.58
2019-06-07T18:57:18.275Z,9.40
2019-06-07T18:59:48.266Z,9.93
2019-06-07T19:02:15.873Z,9.50
2019-06-07T19:04:43.300Z,10.72
2019-06-07T19:07:11.898Z,10.48
2019-06-07T19:09:39.302Z,10.85
2019-06-07T19:12:09.581Z,11.08
2019-06-07T19:14:37.582Z,12.85
2019-06-07T19:17:08.119Z,12.95
2019-06-07T19:19:35.539Z,13.70
2019-06-07T19:22:02.882Z,13.40
2019-06-07T19:24:30.253Z,12.75
2019-06-07T19:26:58.693Z,11.65
2019-06-07T19:29:26.054Z,10.38
2019-06-07T19:31:53.455Z,11.08
2019-06-07T19:34:20.808Z,11.57
2019-06-07T19:36:51.473Z,10.70
2019-06-07T19:39:19.119Z,11.33
2019-06-07T19:41:46.480Z,11.10
2019-06-07T19:44:13.815Z,11.10
2019-06-07T19:46:41.226Z,10.80
2019-06-07T19:49:10.241Z,9.20
2019-06-07T19:51:38.862Z,10.23
2019-06-07T19:54:06.146Z,9.60
2019-06-07T19:56:34.337Z,10.80
2019-06-07T19:59:02.203Z,12.82
2019-06-07T20:01:29.629Z,13.88
2019-06-07T20:03:58.009Z,14.28
2019-06-07T20:06:25.325Z,15.35
2019-06-07T20:08:52.743Z,18.52
2019-06-07T20:11:20.083Z,17.25
2019-06-07T20:13:47.423Z,17.42
2019-06-07T20:16:14.879Z,15.30
2019-06-07T20:18:42.303Z,15.60
2019-06-07T20:21:09.726Z,13.90
2019-06-07T20:23:37.192Z,11.15
2019-06-07T20:26:11.033Z,10.82
2019-06-07T20:28:38.429Z,11.63
2019-06-07T20:31:06.124Z,18.02
2019-06-07T20:33:33.581Z,19.95
2019-06-07T20:36:04.871Z,20.80
2019-06-07T20:38:31.698Z,21.07
2019-06-07T20:40:59.113Z,20.68
2019-06-07T20:43:26.487Z,20.68
2019-06-07T20:45:53.896Z,18.92
2019-06-07T20:48:21.296Z,18.27
2019-06-07T20:50:48.709Z,18.32
2019-06-07T20:53:16.045Z,17.10
2019-06-07T20:55:43.392Z,18.15
2019-06-07T20:58:10.773Z,16.07
2019-06-07T21:00:38.229Z,18.85
2019-06-07T21:03:07.262Z,18.82
2019-06-07T21:05:34.760Z,18.82
2019-06-07T21:08:03.763Z,16.27
2019-06-07T21:10:31.383Z,16.15
2019-06-07T21:12:59.693Z,16.25
2019-06-07T21:15:27.097Z,16.37
2019-06-07T21:17:54.534Z,14.87
2019-06-07T21:20:21.940Z,13.85
2019-06-07T21:22:49.360Z,14.95
2019-06-07T21:25:16.759Z,15.58
2019-06-07T21:27:44.118Z,13.50
2019-06-07T21:30:11.707Z,13.30
2019-06-07T21:32:39.285Z,12.93
2019-06-07T21:35:08.049Z,12.70
2019-06-07T21:37:35.455Z,12.93
2019-06-07T21:40:04.172Z,13.08
2019-06-07T21:42:31.601Z,12.60
2019-06-07T21:44:59.003Z,14.25
2019-06-07T21:47:26.417Z,14.28
2019-06-07T21:49:53.768Z,14.20
2019-06-07T21:52:21.104Z,15.23
2019-06-07T21:54:48.431Z,15.28
2019-06-07T21:57:15.834Z,15.18
2019-06-07T21:59:43.199Z,14.90
2019-06-07T22:02:11.708Z,14.13
2019-06-07T22:04:39.045Z,14.35
2019-06-07T22:07:07.894Z,14.30
2019-06-07T22:09:35.321Z,13.55
2019-06-07T22:12:04.347Z,13.93
2019-06-07T22:14:31.804Z,14.65
2019-06-07T22:16:59.125Z,17.10
2019-06-07T22:19:26.549Z,16.55
2019-06-07T22:22:02.648Z,15.30
2019-06-07T22:24:22.974Z,17.32
2019-06-07T22:26:50.311Z,16.97
2019-06-07T22:29:19.382Z,17.90
2019-06-07T22:31:46.798Z,16.65
2019-06-07T22:34:15.073Z,17.10
2019-06-07T22:36:42.593Z,16.37
2019-06-07T22:39:11.581Z,16.60
2019-06-07T22:41:39.032Z,17.25
2019-06-07T22:44:07.019Z,16.32
2019-06-07T22:46:37.714Z,18.07
2019-06-07T22:49:03.651Z,21.87
2019-06-07T22:51:31.000Z,20.85
2019-06-07T22:53:58.376Z,19.15
2019-06-07T22:56:39.515Z,19.82
2019-06-07T22:59:07.965Z,18.15
2019-06-07T23:01:35.900Z,17.27
2019-06-07T23:04:03.223Z,17.45
2019-06-07T23:06:30.520Z,16.70
2019-06-07T23:08:57.942Z,18.00
2019-06-07T23:11:25.263Z,19.30
2019-06-07T23:13:52.686Z,19.27
2019-06-07T23:16:20.070Z,19.50
2019-06-07T23:18:47.728Z,20.17
2019-06-07T23:21:15.921Z,20.30
2019-06-07T23:23:43.380Z,21.15
2019-06-07T23:26:12.097Z,19.65
2019-06-07T23:28:39.574Z,19.05
2019-06-07T23:31:06.905Z,20.05
2019-06-07T23:33:34.260Z,21.68
2019-06-07T23:36:01.735Z,20.65
2019-06-07T23:38:29.172Z,20.85
2019-06-07T23:40:56.574Z,21.90
2019-06-07T23:43:23.955Z,21.93
2019-06-07T23:45:51.276Z,21.07
2019-06-07T23:48:19.542Z,21.33
2019-06-07T23:50:46.944Z,22.00
2019-06-07T23:53:14.248Z,22.27
2019-06-07T23:55:41.611Z,21.65
2019-06-07T23:58:08.998Z,20.30
